Time;durP1;ratioP1;P1;durP2;ratioP2;P2;SDS_P1;SDS_P2;PMS_P1;PMS_P2;Temp;Humidity;BMP_temperature;BMP_pressure;BME280_temperature;BME280_humidity;BME280_pressure;Samples;Min_cycle;Max_cycle;Signal;HPM_P1;HPM_P2
2023/07/07 00:01:21;;;;;;;;;;;24.00;59.30;;;;;;5083390;28;19908;-35
2023/07/07 00:03:47;;;;;;;;;;;23.90;59.30;;;;;;5083391;28;19962;-35
2023/07/07 00:06:13;;;;;;;;;;;23.90;59.40;;;;;;5064564;28;19916;-36
2023/07/07 00:08:38;;;;;;;;;;;23.90;59.50;;;;;;5083070;28;19912;-35
2023/07/07 00:11:04;;;;;;;;;;;23.90;59.40;;;;;;5085154;28;19908;-35
2023/07/07 00:13:30;;;;;;;;;;;23.80;59.70;;;;;;5082508;28;19924;-35
2023/07/07 00:16:00;;;;;;;;;;;23.80;59.60;;;;;;5083173;28;19920;-35
2023/07/07 00:18:28;;;;;;;;;;;23.80;59.60;;;;;;5076792;28;19979;-36
2023/07/07 00:20:58;;;;;;;;;;;23.80;59.50;;;;;;5098219;28;20003;-35
2023/07/07 00:23:25;;;;;;;;;;;23.80;59.30;;;;;;5077932;28;19987;-35
2023/07/07 00:26:00;;;;;;;;;;;23.70;59.20;;;;;;5082477;28;19912;-35
2023/07/07 00:28:26;;;;;;;;;;;23.80;62.20;;;;;;5083226;28;19977;-35
2023/07/07 00:30:52;;;;;;;;;;;23.70;64.10;;;;;;5082670;28;19908;-36
2023/07/07 00:33:18;;;;;;;;;;;23.70;64.20;;;;;;5084147;28;19927;-35
2023/07/07 00:35:47;;;;;;;;;;;23.70;64.30;;;;;;5082726;28;19912;-35
2023/07/07 00:38:13;;;;;;;;;;;23.70;64.40;;;;;;5082662;28;19983;-35
2023/07/07 00:40:39;;;;;;;;;;;23.70;64.60;;;;;;5082925;28;20080;-35
2023/07/07 00:43:15;;;;;;;;;;;23.70;64.70;;;;;;5082474;28;19955;-35
2023/07/07 00:45:41;;;;;;;;;;;23.70;64.90;;;;;;5082290;28;19959;-35
2023/07/07 00:48:07;;;;;;;;;;;23.70;65.10;;;;;;5082998;28;19912;-35
2023/07/07 00:50:37;;;;;;;;;;;23.70;65.20;;;;;;5082720;28;19979;-35
2023/07/07 00:53:03;;;;;;;;;;;23.80;65.60;;;;;;5081733;28;19924;-35
2023/07/07 00:55:38;;;;;;;;;;;23.80;65.90;;;;;;5082831;28;20002;-35
2023/07/07 00:58:05;;;;;;;;;;;23.80;66.10;;;;;;5082115;28;19915;-35
2023/07/07 01:00:32;;;;;;;;;;;23.80;66.40;;;;;;5082562;28;19909;-36
2023/07/07 01:02:58;;;;;;;;;;;23.80;66.70;;;;;;5083037;28;19966;-35
2023/07/07 01:05:24;;;;;;;;;;;23.80;66.90;;;;;;5082323;28;19912;-35
2023/07/07 01:07:51;;;;;;;;;;;23.90;67.20;;;;;;5089899;28;20062;-35
2023/07/07 01:10:18;;;;;;;;;;;23.90;67.40;;;;;;5082510;28;19935;-35
2023/07/07 01:12:45;;;;;;;;;;;23.90;67.50;;;;;;5082477;28;19913;-35
2023/07/07 01:15:11;;;;;;;;;;;23.90;67.70;;;;;;5064392;28;19958;-35
2023/07/07 01:17:45;;;;;;;;;;;23.90;67.90;;;;;;5082132;28;19908;-35
2023/07/07 01:20:31;;;;;;;;;;;24.00;68.10;;;;;;5074422;28;19918;-35
2023/07/07 01:22:57;;;;;;;;;;;24.00;68.20;;;;;;5064106;28;20011;-36
2023/07/07 01:25:38;;;;;;;;;;;24.00;68.40;;;;;;5082336;28;19912;-35
2023/07/07 01:28:16;;;;;;;;;;;24.00;69.20;;;;;;5084908;28;19979;-36
2023/07/07 01:30:44;;;;;;;;;;;24.00;68.60;;;;;;5082666;28;19974;-35
2023/07/07 01:33:11;;;;;;;;;;;24.00;68.70;;;;;;5086598;28;19920;-35
2023/07/07 01:35:36;;;;;;;;;;;24.10;68.80;;;;;;5055272;28;19921;-36
2023/07/07 01:38:02;;;;;;;;;;;24.10;68.90;;;;;;5081830;28;20269;-36
2023/07/07 01:40:47;;;;;;;;;;;24.10;68.80;;;;;;5081813;28;19912;-35
2023/07/07 01:43:14;;;;;;;;;;;24.10;68.90;;;;;;5081718;28;19928;-37
2023/07/07 01:46:12;;;;;;;;;;;24.10;69.00;;;;;;5091017;28;19921;-35
2023/07/07 01:48:52;;;;;;;;;;;24.10;69.00;;;;;;5010787;28;19913;-36
2023/07/07 01:51:18;;;;;;;;;;;24.10;69.00;;;;;;5023656;28;19918;-35
2023/07/07 01:53:43;;;;;;;;;;;24.20;69.10;;;;;;5000825;28;20056;-35
2023/07/07 01:56:09;;;;;;;;;;;24.20;69.20;;;;;;5004494;28;20026;-35
2023/07/07 01:58:35;;;;;;;;;;;24.20;69.40;;;;;;5003293;28;19914;-35
2023/07/07 02:01:01;;;;;;;;;;;24.20;69.40;;;;;;5000746;28;19941;-35
2023/07/07 02:03:27;;;;;;;;;;;24.20;69.50;;;;;;5002081;28;19920;-35
2023/07/07 02:05:53;;;;;;;;;;;24.20;69.50;;;;;;5006825;28;20505;-35
2023/07/07 02:08:19;;;;;;;;;;;24.20;69.60;;;;;;5016252;28;19914;-35
2023/07/07 02:10:45;;;;;;;;;;;24.30;69.70;;;;;;5007888;28;19958;-35
2023/07/07 02:13:11;;;;;;;;;;;24.30;69.70;;;;;;5022147;28;19917;-35
2023/07/07 02:15:37;;;;;;;;;;;24.30;69.80;;;;;;5014339;28;19916;-35
2023/07/07 02:18:03;;;;;;;;;;;24.30;69.80;;;;;;5011184;28;19921;-36
2023/07/07 02:20:30;;;;;;;;;;;24.30;69.80;;;;;;5008555;28;19969;-35
2023/07/07 02:22:55;;;;;;;;;;;24.30;69.80;;;;;;5013348;28;19909;-35
2023/07/07 02:25:21;;;;;;;;;;;24.30;69.80;;;;;;5083346;28;19919;-35
2023/07/07 02:27:47;;;;;;;;;;;24.30;69.80;;;;;;5084925;28;20003;-35
2023/07/07 02:30:14;;;;;;;;;;;24.30;69.80;;;;;;5084580;28;19923;-35
2023/07/07 02:32:39;;;;;;;;;;;24.30;69.80;;;;;;5082741;28;19924;-35
2023/07/07 02:35:06;;;;;;;;;;;24.30;69.80;;;;;;5084922;28;19965;-35
2023/07/07 02:37:32;;;;;;;;;;;24.40;69.90;;;;;;5084741;28;19915;-35
2023/07/07 02:39:59;;;;;;;;;;;24.40;70.00;;;;;;5084667;28;19912;-35
2023/07/07 02:42:25;;;;;;;;;;;24.40;70.00;;;;;;5085647;28;19908;-35
2023/07/07 02:44:51;;;;;;;;;;;24.40;70.10;;;;;;5084966;28;19935;-35
2023/07/07 02:47:17;;;;;;;;;;;24.40;70.10;;;;;;5084517;28;20026;-35
2023/07/07 02:49:43;;;;;;;;;;;24.40;70.30;;;;;;5084828;28;20380;-36
2023/07/07 02:52:09;;;;;;;;;;;24.40;71.00;;;;;;5084408;28;19920;-35
2023/07/07 02:54:35;;;;;;;;;;;24.40;70.30;;;;;;5084802;28;19927;-35
2023/07/07 02:57:01;;;;;;;;;;;24.40;70.40;;;;;;5084107;28;19999;-35
2023/07/07 02:59:27;;;;;;;;;;;24.40;71.20;;;;;;5084698;28;19912;-36
2023/07/07 03:01:54;;;;;;;;;;;24.40;70.40;;;;;;5084295;28;19938;-36
2023/07/07 03:04:19;;;;;;;;;;;24.40;70.50;;;;;;5084975;28;20127;-35
2023/07/07 03:06:47;;;;;;;;;;;24.40;70.40;;;;;;5084520;28;19913;-35
2023/07/07 03:09:13;;;;;;;;;;;24.50;70.50;;;;;;5084099;28;19923;-35
2023/07/07 03:11:39;;;;;;;;;;;24.50;70.40;;;;;;5084319;28;19913;-35
2023/07/07 03:14:05;;;;;;;;;;;24.50;70.40;;;;;;5083938;28;19962;-36
2023/07/07 03:16:31;;;;;;;;;;;24.50;70.30;;;;;;5083754;28;19912;-35
2023/07/07 03:18:58;;;;;;;;;;;24.50;70.30;;;;;;5083700;28;19916;-36
2023/07/07 03:21:24;;;;;;;;;;;24.50;70.50;;;;;;5084395;28;19913;-35
2023/07/07 03:23:50;;;;;;;;;;;24.50;70.40;;;;;;5084677;28;19919;-35
2023/07/07 03:26:17;;;;;;;;;;;24.50;70.50;;;;;;5084022;28;19919;-36
2023/07/07 03:28:43;;;;;;;;;;;24.50;70.60;;;;;;5083444;28;19912;-35
2023/07/07 03:31:25;;;;;;;;;;;24.50;70.70;;;;;;5083197;28;19923;-36
2023/07/07 03:33:51;;;;;;;;;;;24.50;70.70;;;;;;5083912;28;19924;-35
2023/07/07 03:36:18;;;;;;;;;;;24.50;70.90;;;;;;5083923;28;19912;-35
2023/07/07 03:38:44;;;;;;;;;;;24.50;70.80;;;;;;5083843;28;20714;-36
2023/07/07 03:41:11;;;;;;;;;;;24.50;70.90;;;;;;5083888;28;19916;-35
2023/07/07 03:43:37;;;;;;;;;;;24.50;71.00;;;;;;5083522;28;19912;-35
2023/07/07 03:46:03;;;;;;;;;;;24.50;70.90;;;;;;5083039;28;19919;-35
2023/07/07 03:48:29;;;;;;;;;;;24.50;70.70;;;;;;5083310;28;19938;-35
2023/07/07 03:50:58;;;;;;;;;;;24.50;70.70;;;;;;5083700;28;19951;-35
2023/07/07 03:53:25;;;;;;;;;;;24.50;70.70;;;;;;5076438;28;19917;-35
2023/07/07 03:55:51;;;;;;;;;;;24.50;70.60;;;;;;5083389;28;20412;-35
2023/07/07 03:58:17;;;;;;;;;;;24.50;70.60;;;;;;5082726;28;19975;-35
2023/07/07 04:00:42;;;;;;;;;;;24.50;70.50;;;;;;5083601;28;19912;-35
2023/07/07 04:03:08;;;;;;;;;;;24.50;70.50;;;;;;5082969;28;19919;-35
2023/07/07 04:05:42;;;;;;;;;;;24.50;70.50;;;;;;5083442;28;19909;-36
2023/07/07 04:08:08;;;;;;;;;;;24.50;70.80;;;;;;5082398;28;19908;-35
2023/07/07 04:10:34;;;;;;;;;;;24.50;71.00;;;;;;5084219;28;19958;-35
2023/07/07 04:12:59;;;;;;;;;;;24.50;71.20;;;;;;5083737;28;20381;-35
2023/07/07 04:15:25;;;;;;;;;;;24.50;71.30;;;;;;5083326;28;19912;-35
2023/07/07 04:17:51;;;;;;;;;;;24.50;71.30;;;;;;5082498;28;19979;-35
2023/07/07 04:20:17;;;;;;;;;;;24.50;71.50;;;;;;5083250;28;19942;-35
2023/07/07 04:22:43;;;;;;;;;;;24.50;71.40;;;;;;5083104;28;19947;-35
2023/07/07 04:25:09;;;;;;;;;;;24.50;71.50;;;;;;5082501;28;19912;-35
2023/07/07 04:27:35;;;;;;;;;;;24.50;71.40;;;;;;5082120;28;19913;-35
2023/07/07 04:30:03;;;;;;;;;;;24.50;71.50;;;;;;5082699;28;19915;-36
2023/07/07 04:32:29;;;;;;;;;;;24.50;71.20;;;;;;5082886;28;19923;-35
2023/07/07 04:34:55;;;;;;;;;;;24.50;71.10;;;;;;5082587;28;19921;-35
2023/07/07 04:37:21;;;;;;;;;;;24.50;71.00;;;;;;5082897;28;19948;-35
2023/07/07 04:39:48;;;;;;;;;;;24.50;71.00;;;;;;5081992;28;19920;-35
2023/07/07 04:42:14;;;;;;;;;;;24.50;70.90;;;;;;5082209;28;19929;-35
2023/07/07 04:44:40;;;;;;;;;;;24.50;70.70;;;;;;5082862;28;20351;-35
2023/07/07 04:47:06;;;;;;;;;;;24.50;70.60;;;;;;5082625;28;19951;-35
2023/07/07 04:49:32;;;;;;;;;;;24.50;70.50;;;;;;5082585;28;19912;-36
2023/07/07 04:51:58;;;;;;;;;;;24.50;70.70;;;;;;5082599;28;19908;-35
2023/07/07 04:54:23;;;;;;;;;;;24.50;71.10;;;;;;5082641;28;19927;-36
2023/07/07 04:56:49;;;;;;;;;;;24.50;71.40;;;;;;5082456;28;20046;-35
2023/07/07 04:59:16;;;;;;;;;;;24.50;71.60;;;;;;5081587;28;19913;-35
2023/07/07 05:01:42;;;;;;;;;;;24.50;71.80;;;;;;5082538;28;19997;-35
2023/07/07 05:04:08;;;;;;;;;;;24.50;71.70;;;;;;5081781;28;19916;-35
2023/07/07 05:06:34;;;;;;;;;;;24.50;71.70;;;;;;5082552;28;19986;-35
2023/07/07 05:09:01;;;;;;;;;;;24.50;71.80;;;;;;5081474;28;20015;-35
2023/07/07 05:11:27;;;;;;;;;;;24.50;71.90;;;;;;5082285;28;19912;-35
2023/07/07 05:13:53;;;;;;;;;;;24.50;71.70;;;;;;5081917;28;19916;-35
2023/07/07 05:16:20;;;;;;;;;;;24.50;71.50;;;;;;5082248;28;19915;-35
2023/07/07 05:18:46;;;;;;;;;;;24.50;71.30;;;;;;5082613;28;19913;-35
2023/07/07 05:21:13;;;;;;;;;;;24.50;71.20;;;;;;5082601;28;19962;-35
2023/07/07 05:23:38;;;;;;;;;;;24.50;71.00;;;;;;5082295;28;19934;-35
2023/07/07 05:26:04;;;;;;;;;;;24.50;70.90;;;;;;5081645;28;19912;-36
2023/07/07 05:28:30;;;;;;;;;;;24.50;70.80;;;;;;5088006;28;19952;-35
2023/07/07 05:30:56;;;;;;;;;;;24.50;70.70;;;;;;5080591;28;19920;-34
2023/07/07 05:33:22;;;;;;;;;;;24.50;70.70;;;;;;5073730;28;20002;-35
2023/07/07 05:35:52;;;;;;;;;;;24.50;70.60;;;;;;5082584;28;19984;-35
2023/07/07 05:38:19;;;;;;;;;;;24.50;70.80;;;;;;5083014;28;20432;-35
2023/07/07 05:40:46;;;;;;;;;;;24.50;71.40;;;;;;5086120;28;19924;-35
2023/07/07 05:43:14;;;;;;;;;;;24.50;71.80;;;;;;5085900;28;19912;-35
2023/07/07 05:45:40;;;;;;;;;;;24.50;71.90;;;;;;5085582;28;19920;-35
2023/07/07 05:48:06;;;;;;;;;;;24.40;71.80;;;;;;5085467;28;19939;-35
2023/07/07 05:50:32;;;;;;;;;;;24.40;71.80;;;;;;5085930;28;19935;-35
2023/07/07 05:52:58;;;;;;;;;;;24.40;71.80;;;;;;5085623;28;19992;-35
2023/07/07 05:55:27;;;;;;;;;;;24.40;71.90;;;;;;5085691;28;19934;-35
2023/07/07 05:57:53;;;;;;;;;;;24.40;71.90;;;;;;5085222;28;19920;-35
2023/07/07 06:00:19;;;;;;;;;;;24.40;71.80;;;;;;5086178;28;19908;-35
2023/07/07 06:02:45;;;;;;;;;;;24.50;72.30;;;;;;5085794;28;19939;-35
2023/07/07 06:05:11;;;;;;;;;;;24.40;71.40;;;;;;5085760;28;19912;-35
2023/07/07 06:07:37;;;;;;;;;;;24.40;71.30;;;;;;5085002;28;19912;-35
2023/07/07 06:10:03;;;;;;;;;;;24.40;71.20;;;;;;5083802;28;20288;-36
2023/07/07 06:12:28;;;;;;;;;;;24.40;71.20;;;;;;5089170;28;19919;-35
2023/07/07 06:14:54;;;;;;;;;;;24.40;71.00;;;;;;5085150;28;19921;-35
2023/07/07 06:17:20;;;;;;;;;;;24.40;71.00;;;;;;5078503;28;20455;-35
2023/07/07 06:19:46;;;;;;;;;;;24.40;71.00;;;;;;5085624;28;20347;-35
2023/07/07 06:22:12;;;;;;;;;;;24.40;71.10;;;;;;5085276;28;19912;-35
2023/07/07 06:24:38;;;;;;;;;;;24.40;71.30;;;;;;5085282;28;19912;-35
2023/07/07 06:27:04;;;;;;;;;;;24.40;71.60;;;;;;5084478;28;19919;-35
2023/07/07 06:29:31;;;;;;;;;;;24.40;71.70;;;;;;5085147;28;19971;-35
2023/07/07 06:31:57;;;;;;;;;;;24.40;71.70;;;;;;5076376;28;20293;-35
2023/07/07 06:34:23;;;;;;;;;;;24.40;71.80;;;;;;5085145;28;19916;-35
2023/07/07 06:36:48;;;;;;;;;;;24.40;71.60;;;;;;5085102;28;20438;-35
2023/07/07 06:39:14;;;;;;;;;;;24.40;71.80;;;;;;5085087;28;20585;-35
2023/07/07 06:41:40;;;;;;;;;;;24.40;71.70;;;;;;5084931;28;20047;-35
2023/07/07 06:44:07;;;;;;;;;;;24.40;71.70;;;;;;5084504;28;20011;-35
2023/07/07 06:46:32;;;;;;;;;;;24.30;71.60;;;;;;5084845;28;19935;-35
2023/07/07 06:48:59;;;;;;;;;;;24.30;71.50;;;;;;5079612;28;20387;-35
2023/07/07 06:51:25;;;;;;;;;;;24.30;71.40;;;;;;5072113;28;19913;-35
2023/07/07 06:53:51;;;;;;;;;;;24.30;71.30;;;;;;5081190;28;19943;-35
2023/07/07 06:56:17;;;;;;;;;;;24.30;71.40;;;;;;5084492;28;20272;-35
2023/07/07 06:58:42;;;;;;;;;;;24.30;71.40;;;;;;5084454;28;19958;-35
2023/07/07 07:01:11;;;;;;;;;;;24.30;71.90;;;;;;5084571;28;19912;-35
2023/07/07 07:03:38;;;;;;;;;;;24.30;71.30;;;;;;5084159;28;19955;-35
2023/07/07 07:06:04;;;;;;;;;;;24.30;71.30;;;;;;5084217;28;19912;-35
2023/07/07 07:08:30;;;;;;;;;;;24.30;71.50;;;;;;5084364;28;19912;-35
2023/07/07 07:10:56;;;;;;;;;;;24.30;71.50;;;;;;5084164;28;19938;-35
2023/07/07 07:13:21;;;;;;;;;;;24.30;71.60;;;;;;5084343;28;19981;-35
2023/07/07 07:15:47;;;;;;;;;;;24.30;71.70;;;;;;5084405;28;19939;-35
2023/07/07 07:18:13;;;;;;;;;;;24.30;71.80;;;;;;5084232;28;19981;-35
2023/07/07 07:20:39;;;;;;;;;;;24.30;71.90;;;;;;5076794;28;20411;-35
2023/07/07 07:23:05;;;;;;;;;;;24.30;72.00;;;;;;5083425;28;19919;-35
2023/07/07 07:25:31;;;;;;;;;;;24.30;72.10;;;;;;5085787;28;19979;-35
2023/07/07 07:27:57;;;;;;;;;;;24.30;72.20;;;;;;5083941;28;19912;-35
2023/07/07 07:30:23;;;;;;;;;;;24.30;72.00;;;;;;5076941;28;19958;-35
2023/07/07 07:32:49;;;;;;;;;;;24.30;71.90;;;;;;5083560;28;19920;-35
2023/07/07 07:35:15;;;;;;;;;;;24.30;71.90;;;;;;5083612;28;20416;-35
2023/07/07 07:37:41;;;;;;;;;;;24.30;71.90;;;;;;5084440;28;19952;-35
2023/07/07 07:40:07;;;;;;;;;;;24.30;71.70;;;;;;5083792;28;19919;-35
2023/07/07 07:42:33;;;;;;;;;;;24.30;71.80;;;;;;5082946;28;20281;-35
2023/07/07 07:44:59;;;;;;;;;;;24.30;71.70;;;;;;5082982;28;19918;-35
2023/07/07 07:47:25;;;;;;;;;;;24.30;71.70;;;;;;5083109;28;20401;-35
2023/07/07 07:49:50;;;;;;;;;;;24.30;71.80;;;;;;5083500;28;19962;-35
2023/07/07 07:52:16;;;;;;;;;;;24.30;71.90;;;;;;5083033;28;19913;-35
2023/07/07 07:54:43;;;;;;;;;;;24.30;71.90;;;;;;5082970;28;19924;-35
2023/07/07 07:57:09;;;;;;;;;;;24.30;71.90;;;;;;5082867;28;19972;-35
2023/07/07 07:59:34;;;;;;;;;;;24.30;72.00;;;;;;5098833;28;19930;-35
2023/07/07 08:02:00;;;;;;;;;;;24.20;72.00;;;;;;5084667;28;19916;-35
2023/07/07 08:04:26;;;;;;;;;;;24.20;72.00;;;;;;5083707;28;19912;-35
2023/07/07 08:06:52;;;;;;;;;;;24.20;72.10;;;;;;5082763;28;19908;-35
2023/07/07 08:09:19;;;;;;;;;;;24.20;72.20;;;;;;5083161;28;19913;-35
2023/07/07 08:11:48;;;;;;;;;;;24.20;72.10;;;;;;5083239;28;20392;-35
2023/07/07 08:14:14;;;;;;;;;;;24.20;72.10;;;;;;5082632;28;19920;-35
2023/07/07 08:16:40;;;;;;;;;;;24.20;72.10;;;;;;5082569;28;19912;-35
2023/07/07 08:19:06;;;;;;;;;;;24.20;72.10;;;;;;5082012;28;19934;-35
2023/07/07 08:21:32;;;;;;;;;;;24.20;72.00;;;;;;5082275;28;19943;-35
2023/07/07 08:23:58;;;;;;;;;;;24.20;72.00;;;;;;5075616;28;19912;-35
2023/07/07 08:26:24;;;;;;;;;;;24.20;72.00;;;;;;5082435;28;19908;-35
2023/07/07 08:28:50;;;;;;;;;;;24.20;71.90;;;;;;5082611;28;19919;-35
2023/07/07 08:31:16;;;;;;;;;;;24.20;72.00;;;;;;5082593;28;19956;-35
2023/07/07 08:33:44;;;;;;;;;;;24.20;72.00;;;;;;5082645;28;19930;-35
2023/07/07 08:36:10;;;;;;;;;;;24.20;71.90;;;;;;5082147;28;19971;-35
2023/07/07 08:38:36;;;;;;;;;;;24.20;72.10;;;;;;5083108;28;19971;-38
2023/07/07 08:41:02;;;;;;;;;;;24.20;72.10;;;;;;5082694;28;20329;-35
2023/07/07 08:43:30;;;;;;;;;;;24.20;72.20;;;;;;5082528;28;19912;-35
2023/07/07 08:46:16;;;;;;;;;;;24.20;72.30;;;;;;5084017;28;19912;-35
2023/07/07 08:49:02;;;;;;;;;;;24.20;72.30;;;;;;5082770;28;19912;-35
2023/07/07 08:51:33;;;;;;;;;;;24.20;72.40;;;;;;5064972;28;19919;-35
2023/07/07 08:54:05;;;;;;;;;;;24.10;72.30;;;;;;5082622;28;20375;-35
2023/07/07 08:56:47;;;;;;;;;;;24.10;72.40;;;;;;5082366;28;19923;-35
2023/07/07 08:59:25;;;;;;;;;;;24.10;72.40;;;;;;5097101;28;19924;-35
2023/07/07 09:02:27;;;;;;;;;;;24.10;72.30;;;;;;5082070;28;19971;-35
2023/07/07 09:05:20;;;;;;;;;;;24.10;72.30;;;;;;5016567;28;19910;-35
2023/07/07 09:08:04;;;;;;;;;;;24.10;72.20;;;;;;4998151;28;19983;-35
2023/07/07 09:10:45;;;;;;;;;;;24.10;72.10;;;;;;5020396;28;19917;-35
2023/07/07 09:13:11;;;;;;;;;;;24.10;72.10;;;;;;5020134;28;21899;-35
2023/07/07 09:15:39;;;;;;;;;;;24.10;72.20;;;;;;5024255;28;19947;-35
2023/07/07 09:18:13;;;;;;;;;;;24.10;72.20;;;;;;5023798;28;20000;-36
2023/07/07 09:20:38;;;;;;;;;;;24.10;72.20;;;;;;5024304;28;19935;-35
2023/07/07 09:23:24;;;;;;;;;;;24.10;72.20;;;;;;5020451;28;19972;-35
2023/07/07 09:25:52;;;;;;;;;;;24.10;72.30;;;;;;5028291;28;19913;-35
2023/07/07 09:28:18;;;;;;;;;;;24.10;72.40;;;;;;5023879;28;19913;-35
2023/07/07 09:30:44;;;;;;;;;;;24.10;72.40;;;;;;5023766;28;19910;-35
2023/07/07 09:33:11;;;;;;;;;;;24.10;72.50;;;;;;5022977;28;19932;-35
2023/07/07 09:35:38;;;;;;;;;;;24.10;72.50;;;;;;5025342;28;19917;-34
2023/07/07 09:38:15;;;;;;;;;;;24.10;72.50;;;;;;5018304;28;19909;-35
2023/07/07 09:40:46;;;;;;;;;;;24.10;72.50;;;;;;5101568;28;20376;-35
2023/07/07 09:43:24;;;;;;;;;;;24.10;72.70;;;;;;5085558;28;19912;-35
2023/07/07 09:45:53;;;;;;;;;;;24.10;72.70;;;;;;5101680;28;19915;-35
2023/07/07 09:48:48;;;;;;;;;;;24.10;72.60;;;;;;5085377;28;19939;-35
2023/07/07 09:51:14;;;;;;;;;;;24.10;72.60;;;;;;5072890;28;19919;-35
2023/07/07 09:53:39;;;;;;;;;;;24.10;72.50;;;;;;5090375;28;19916;-35
2023/07/07 09:56:09;;;;;;;;;;;24.10;72.50;;;;;;5085389;28;19983;-35
2023/07/07 09:58:37;;;;;;;;;;;24.10;72.50;;;;;;5085349;28;19915;-35
2023/07/07 10:01:03;;;;;;;;;;;24.10;72.40;;;;;;5086110;28;19931;-35
2023/07/07 10:03:29;;;;;;;;;;;24.10;72.60;;;;;;5085507;28;19939;-35
2023/07/07 10:05:55;;;;;;;;;;;24.00;72.40;;;;;;5085426;28;19908;-35
2023/07/07 10:08:21;;;;;;;;;;;24.10;72.50;;;;;;5085178;28;19979;-35
2023/07/07 10:10:54;;;;;;;;;;;24.00;72.60;;;;;;5085553;28;19908;-35
2023/07/07 10:13:21;;;;;;;;;;;24.00;72.70;;;;;;5100462;28;19944;-35
2023/07/07 10:16:03;;;;;;;;;;;24.00;72.70;;;;;;5067810;28;19912;-35
2023/07/07 10:18:29;;;;;;;;;;;24.00;72.70;;;;;;5094208;28;20353;-35
2023/07/07 10:20:56;;;;;;;;;;;24.00;72.80;;;;;;5085817;28;19908;-35
2023/07/07 10:23:22;;;;;;;;;;;24.00;72.90;;;;;;5085223;28;20382;-35
2023/07/07 10:25:48;;;;;;;;;;;24.00;72.80;;;;;;5085160;28;19931;-35
2023/07/07 10:28:15;;;;;;;;;;;24.00;73.00;;;;;;5084918;28;19947;-35
2023/07/07 10:30:41;;;;;;;;;;;24.00;72.80;;;;;;5085522;28;19951;-35
2023/07/07 10:33:30;;;;;;;;;;;24.00;72.80;;;;;;5084715;28;19970;-35
2023/07/07 10:35:56;;;;;;;;;;;24.00;72.80;;;;;;5048442;28;19913;-35
2023/07/07 10:38:22;;;;;;;;;;;24.00;72.80;;;;;;5049789;28;19920;-35
2023/07/07 10:40:48;;;;;;;;;;;24.00;72.60;;;;;;5042568;28;19913;-34
2023/07/07 10:43:15;;;;;;;;;;;24.00;72.80;;;;;;5041440;28;19985;-35
2023/07/07 10:45:44;;;;;;;;;;;24.00;72.70;;;;;;5048716;28;19912;-35
2023/07/07 10:48:11;;;;;;;;;;;24.00;72.70;;;;;;5023949;28;19924;-35
2023/07/07 10:50:41;;;;;;;;;;;24.00;72.70;;;;;;5026654;28;19916;-35
2023/07/07 10:53:18;;;;;;;;;;;24.00;72.80;;;;;;5041465;28;19936;-35
2023/07/07 10:55:51;;;;;;;;;;;24.00;72.80;;;;;;5052269;28;19917;-35
2023/07/07 10:58:35;;;;;;;;;;;24.00;73.00;;;;;;5043381;28;19913;-35
2023/07/07 11:01:20;;;;;;;;;;;24.00;72.90;;;;;;5042421;28;19913;-35
2023/07/07 11:03:45;;;;;;;;;;;24.00;73.00;;;;;;5050142;28;19942;-35
2023/07/07 11:06:11;;;;;;;;;;;24.00;73.10;;;;;;5053197;28;19921;-35
2023/07/07 11:08:52;;;;;;;;;;;24.00;73.20;;;;;;5042305;28;19909;-36
2023/07/07 11:11:21;;;;;;;;;;;23.90;73.00;;;;;;5053020;28;19913;-35
2023/07/07 11:13:53;;;;;;;;;;;23.90;73.10;;;;;;5062806;28;19921;-35
2023/07/07 11:16:28;;;;;;;;;;;23.90;73.00;;;;;;5076880;28;20422;-36
2023/07/07 11:19:12;;;;;;;;;;;23.90;73.00;;;;;;5084018;28;20623;-35
2023/07/07 11:22:00;;;;;;;;;;;23.90;73.00;;;;;;5084434;28;19967;-35
2023/07/07 11:24:33;;;;;;;;;;;23.90;72.90;;;;;;5066316;28;19908;-35
2023/07/07 11:27:17;;;;;;;;;;;23.90;73.00;;;;;;5083919;28;19919;-35
2023/07/07 11:29:46;;;;;;;;;;;23.90;73.00;;;;;;5066280;28;19919;-35
2023/07/07 11:32:15;;;;;;;;;;;23.90;73.00;;;;;;5083383;28;19956;-35
2023/07/07 11:34:44;;;;;;;;;;;23.90;73.00;;;;;;5084071;28;20007;-35
2023/07/07 11:37:19;;;;;;;;;;;23.90;73.00;;;;;;5083310;28;19912;-35
2023/07/07 11:39:47;;;;;;;;;;;23.90;72.90;;;;;;5084173;28;19955;-35
2023/07/07 11:42:25;;;;;;;;;;;23.90;73.00;;;;;;5083524;28;20007;-35
2023/07/07 11:45:11;;;;;;;;;;;23.90;73.00;;;;;;5088785;28;19924;-35
2023/07/07 11:47:41;;;;;;;;;;;23.90;73.10;;;;;;5070787;28;19912;-35
2023/07/07 11:50:19;;;;;;;;;;;23.90;73.30;;;;;;5065993;28;20349;-35
2023/07/07 11:52:48;;;;;;;;;;;23.90;73.30;;;;;;5099130;28;19912;-35
2023/07/07 11:55:17;;;;;;;;;;;23.90;73.30;;;;;;5083734;28;19920;-35
2023/07/07 11:57:56;;;;;;;;;;;23.90;73.40;;;;;;5098673;28;19912;-35
2023/07/07 12:00:28;;;;;;;;;;;23.90;73.50;;;;;;5076060;28;19933;-35
2023/07/07 12:03:20;;;;;;;;;;;23.90;73.30;;;;;;5083351;28;20038;-35
2023/07/07 12:05:46;;;;;;;;;;;23.90;73.30;;;;;;5053370;28;19958;-35
2023/07/07 12:08:14;;;;;;;;;;;23.90;73.30;;;;;;5083192;28;19912;-35
2023/07/07 12:10:43;;;;;;;;;;;23.90;73.30;;;;;;5084332;28;19919;-35
2023/07/07 12:13:24;;;;;;;;;;;23.90;73.20;;;;;;5097227;28;19912;-35
2023/07/07 12:15:51;;;;;;;;;;;23.90;73.10;;;;;;5082684;28;19912;-35
2023/07/07 12:18:17;;;;;;;;;;;23.90;73.20;;;;;;5092062;28;19931;-35
2023/07/07 12:20:46;;;;;;;;;;;23.90;73.20;;;;;;5083640;28;20436;-35
2023/07/07 12:23:16;;;;;;;;;;;23.90;73.10;;;;;;5063927;28;19923;-36
2023/07/07 12:25:42;;;;;;;;;;;23.90;73.40;;;;;;5082926;28;19939;-35
2023/07/07 12:28:08;;;;;;;;;;;23.90;73.50;;;;;;5082006;28;20578;-35
2023/07/07 12:30:39;;;;;;;;;;;23.90;73.60;;;;;;5082937;28;19965;-35
2023/07/07 12:33:05;;;;;;;;;;;23.90;73.70;;;;;;5082175;28;19916;-35
2023/07/07 12:35:52;;;;;;;;;;;23.90;73.80;;;;;;5082752;28;19912;-35
2023/07/07 12:38:21;;;;;;;;;;;23.90;73.80;;;;;;5075236;28;19913;-36
2023/07/07 12:40:48;;;;;;;;;;;23.90;73.80;;;;;;5082901;28;19916;-34
2023/07/07 12:43:37;;;;;;;;;;;23.90;73.90;;;;;;5082358;28;19912;-35
2023/07/07 12:46:08;;;;;;;;;;;23.90;74.00;;;;;;5061659;28;19948;-35
2023/07/07 12:48:34;;;;;;;;;;;23.90;73.90;;;;;;5096525;28;19916;-35
2023/07/07 12:51:07;;;;;;;;;;;23.90;73.90;;;;;;5082657;28;19916;-35
2023/07/07 12:53:38;;;;;;;;;;;23.90;73.80;;;;;;5091445;28;19963;-35
2023/07/07 12:56:06;;;;;;;;;;;23.90;73.70;;;;;;5060086;28;19928;-35
2023/07/07 12:58:52;;;;;;;;;;;23.90;73.70;;;;;;5081866;28;19912;-35
2023/07/07 13:01:18;;;;;;;;;;;23.90;73.60;;;;;;5074294;28;19920;-35
2023/07/07 13:03:45;;;;;;;;;;;23.90;73.50;;;;;;5075168;28;19909;-35
2023/07/07 13:06:40;;;;;;;;;;;23.90;73.60;;;;;;5081803;28;19924;-35
2023/07/07 13:09:21;;;;;;;;;;;24.00;73.70;;;;;;5065118;28;20092;-35
2023/07/07 13:11:47;;;;;;;;;;;24.00;73.90;;;;;;5075703;28;19920;-36
2023/07/07 13:14:41;;;;;;;;;;;24.00;74.00;;;;;;5073966;28;19924;-35
2023/07/07 13:17:12;;;;;;;;;;;24.00;74.10;;;;;;5079714;28;19908;-35
2023/07/07 13:19:38;;;;;;;;;;;24.00;74.20;;;;;;5078198;28;19908;-35
2023/07/07 13:22:18;;;;;;;;;;;24.00;74.40;;;;;;5085020;28;20288;-35
2023/07/07 13:24:44;;;;;;;;;;;24.00;74.90;;;;;;5097803;28;19958;-35
2023/07/07 13:27:14;;;;;;;;;;;24.00;75.00;;;;;;5064144;28;20222;-35
2023/07/07 13:29:40;;;;;;;;;;;24.00;74.90;;;;;;5082324;28;19913;-35
2023/07/07 13:32:06;;;;;;;;;;;24.00;75.00;;;;;;5081635;28;19955;-35
2023/07/07 13:34:33;;;;;;;;;;;24.00;75.00;;;;;;5082104;28;19939;-35
2023/07/07 13:37:04;;;;;;;;;;;24.00;74.40;;;;;;5081624;28;19914;-35
2023/07/07 13:39:30;;;;;;;;;;;24.10;74.60;;;;;;5081793;28;19912;-35
2023/07/07 13:41:56;;;;;;;;;;;24.10;74.70;;;;;;5082141;28;19916;-36
2023/07/07 13:44:22;;;;;;;;;;;24.10;74.70;;;;;;5082025;28;19912;-35
2023/07/07 13:47:00;;;;;;;;;;;24.10;74.80;;;;;;5082417;28;19919;-35
2023/07/07 13:49:26;;;;;;;;;;;24.10;75.00;;;;;;5082081;28;19912;-35
2023/07/07 13:51:52;;;;;;;;;;;24.20;75.20;;;;;;5098612;28;19972;-35
2023/07/07 13:54:19;;;;;;;;;;;24.20;75.10;;;;;;5086704;28;19968;-35
2023/07/07 13:56:45;;;;;;;;;;;24.20;75.10;;;;;;5082383;28;19912;-35
2023/07/07 13:59:12;;;;;;;;;;;24.20;75.30;;;;;;5063725;28;19924;-35
2023/07/07 14:01:38;;;;;;;;;;;24.20;75.20;;;;;;5085650;28;19912;-35
2023/07/07 14:04:05;;;;;;;;;;;24.30;75.20;;;;;;5085314;28;19955;-35
2023/07/07 14:06:31;;;;;;;;;;;24.30;75.30;;;;;;5100558;28;19912;-35
2023/07/07 14:08:57;;;;;;;;;;;24.30;75.40;;;;;;5085469;28;19944;-35
2023/07/07 14:11:24;;;;;;;;;;;24.30;75.40;;;;;;5085547;28;19920;-35
2023/07/07 14:13:53;;;;;;;;;;;24.30;75.40;;;;;;5085193;28;20380;-35
2023/07/07 14:16:30;;;;;;;;;;;24.40;75.50;;;;;;5085165;28;19913;-35
2023/07/07 14:18:59;;;;;;;;;;;24.40;75.70;;;;;;5085265;28;19998;-35
2023/07/07 14:21:25;;;;;;;;;;;24.40;75.70;;;;;;5080988;28;19919;-36
2023/07/07 14:23:51;;;;;;;;;;;24.40;75.80;;;;;;5085576;28;19916;-36
2023/07/07 14:26:18;;;;;;;;;;;24.50;75.80;;;;;;5084906;28;19915;-35